Ever Develop — 3FLF8 — position and weather

sailwx.info

Track history (hours):
 
Tides and Currents Weather Stations Pressure Air Temp Water Temp Dewpoint Dewpoint Depression Visibility Wind Speed Wind Dir Waves Ship Positions

Ever Develop

Last reported at 2018-Feb-12 00:29 UTC. Time now 2018-Feb-23 18:44 UTC.
Position N 01°19' E 103°18'.
Warning: this ship's position is 11 days out of date.

Type: Ship (hazmat cat D). MMSI: 356391000.

Date/timePositionNaut miles runAvg speedWind from/ knotsBaromVisibWave heightAir tempDewpointWater temp
2018-Feb-12 00:29N 01°19' E 103°18'713.6
2018-Feb-11 23:57N 01°15' E 103°24'613.9
2018-Feb-11 23:30N 01°13' E 103°30'714.3
2018-Feb-11 23:01N 01°12' E 103°37'5 9.9
2018-Feb-11 22:29N 01°14' E 103°42'510.6
2018-Feb-11 22:00N 01°16' E 103°46'1 1.9
2018-Feb-11 21:31N 01°16' E 103°47'0 0.0
2018-Feb-11 20:55N 01°16' E 103°47'0 0.0
2018-Feb-11 20:28N 01°16' E 103°47'0 0.0
2018-Feb-11 19:55N 01°16' E 103°47'0 0.0
2018-Feb-11 19:28N 01°16' E 103°47'0 0.0
2018-Feb-11 18:55N 01°16' E 103°47'0 0.0
2018-Feb-11 18:28N 01°16' E 103°47'0 0.0
2018-Feb-11 17:55N 01°16' E 103°47'0 0.0
2018-Feb-11 17:25N 01°16' E 103°47'0 0.0
2018-Feb-11 16:58N 01°16' E 103°47'0 0.0
2018-Feb-11 16:25N 01°16' E 103°47'0 0.0
2018-Feb-11 15:55N 01°16' E 103°47'0 0.0
2018-Feb-11 15:28N 01°16' E 103°47'0 0.0
2018-Feb-11 14:55N 01°16' E 103°47'0 0.0
2018-Feb-11 14:28N 01°16' E 103°47'0 0.0
2018-Feb-11 13:55N 01°16' E 103°47'0 0.1
2018-Feb-11 13:25N 01°16' E 103°47'0 0.1
2018-Feb-11 12:55N 01°16' E 103°47'0 0.0
2018-Feb-11 12:25N 01°16' E 103°47'0 0.0
2018-Feb-11 11:55N 01°16' E 103°47'0 0.0
2018-Feb-11 11:28N 01°16' E 103°47'0 0.0
2018-Feb-11 10:55N 01°16' E 103°47'0 0.0
2018-Feb-11 10:28N 01°16' E 103°47'0 0.0
2018-Feb-11 09:55N 01°16' E 103°47'0 0.0
2018-Feb-11 09:28N 01°16' E 103°47'0 0.0
2018-Feb-11 08:58N 01°16' E 103°47'0 0.0
2018-Feb-11 08:22N 01°16' E 103°47'0 0.0
2018-Feb-11 07:55N 01°16' E 103°47'0 0.0
2018-Feb-11 07:25N 01°16' E 103°47'0 0.0
2018-Feb-11 06:43N 01°16' E 103°47'0 0.0
2018-Feb-11 06:30N 01°16' E 103°47'1 1.1
2018-Feb-11 06:00N 01°16' E 103°47'0 0.1
2018-Feb-11 05:30N 01°16' E 103°47'2 3.7
2018-Feb-11 05:00N 01°15' E 103°45'4 7.0
2018-Feb-11 04:30N 01°13' E 103°42'1 2.5
2018-Feb-11 03:55N 01°12' E 103°41'0 0.1
2018-Feb-11 03:28N 01°12' E 103°41'0 0.0
2018-Feb-11 02:58N 01°12' E 103°41'0 0.1
2018-Feb-11 02:28N 01°12' E 103°41'0 0.0
2018-Feb-11 01:58N 01°12' E 103°41'0 0.0
2018-Feb-11 01:25N 01°12' E 103°41'0 0.1
2018-Feb-11 00:58N 01°12' E 103°41'0 0.0
2018-Feb-11 00:28N 01°12' E 103°41'0 0.0
2018-Feb-10 23:58N 01°12' E 103°41'0 0.1
2018-Feb-10 23:28N 01°12' E 103°41'0 0.0
2018-Feb-10 22:58N 01°12' E 103°41'0 0.0
2018-Feb-10 22:28N 01°12' E 103°41'0 0.0
2018-Feb-10 21:58N 01°12' E 103°41'0 0.1
2018-Feb-10 21:28N 01°12' E 103°41'0 0.0
2018-Feb-10 20:58N 01°12' E 103°41'0 0.0
2018-Feb-10 20:28N 01°12' E 103°41'0 0.0
2018-Feb-10 19:55N 01°12' E 103°41'0 0.0
2018-Feb-10 19:28N 01°12' E 103°41'0 0.1
2018-Feb-10 18:58N 01°12' E 103°41'0 0.1
2018-Feb-10 18:28N 01°12' E 103°41'0 0.2
2018-Feb-10 17:59N 01°12' E 103°41'0 0.1
2018-Feb-10 17:29N 01°12' E 103°41'2 3.7
2018-Feb-10 17:00N 01°12' E 103°39'3 6.8
2018-Feb-10 16:30N 01°13' E 103°36'1 2.0
2018-Feb-10 15:59N 01°12' E 103°35'3 6.3
2018-Feb-10 15:30N 01°11' E 103°32'2 4.6
2018-Feb-10 14:59N 01°10' E 103°30'0 0.2
2018-Feb-10 14:30N 01°10' E 103°30'2 3.3
2018-Feb-10 14:00N 01°11' E 103°28'1 1.7
2018-Feb-10 13:29N 01°11' E 103°29'1 1.7
2018-Feb-10 12:59N 01°11' E 103°30'1 1.4
2018-Feb-10 12:30N 01°11' E 103°31'1 1.2
2018-Feb-10 12:00N 01°11' E 103°31'3 7.0
2018-Feb-10 11:30N 01°15' E 103°32'610.8
2018-Feb-10 11:00N 01°20' E 103°33'2 3.2
2018-Feb-10 10:30N 01°22' E 103°33'0 0.1
2018-Feb-10 09:55N 01°22' E 103°33'0 0.0
2018-Feb-10 09:22N 01°22' E 103°33'0 0.0
2018-Feb-10 08:58N 01°22' E 103°33'0 0.0
2018-Feb-10 08:28N 01°22' E 103°33'0 0.0
2018-Feb-10 07:58N 01°22' E 103°33'0 0.0
2018-Feb-10 07:25N 01°22' E 103°33'0 0.0
2018-Feb-10 06:58N 01°22' E 103°33'0 0.0
2018-Feb-10 06:22N 01°22' E 103°33'0 0.0
2018-Feb-10 05:58N 01°22' E 103°33'0 0.0
2018-Feb-10 04:58N 01°22' E 103°33'0 0.0
2018-Feb-10 04:25N 01°22' E 103°33'0 0.0
2018-Feb-10 03:58N 01°22' E 103°33'0 0.0
2018-Feb-10 03:25N 01°22' E 103°33'0 0.0
2018-Feb-10 02:58N 01°22' E 103°33'0 0.0
2018-Feb-10 02:04N 01°22' E 103°33'0 0.0
2018-Feb-10 01:58N 01°22' E 103°33'0 0.0
2018-Feb-10 01:28N 01°22' E 103°33'0 0.0
2018-Feb-10 00:55N 01°22' E 103°33'0 0.0
2018-Feb-10 00:28N 01°22' E 103°33'0 0.0
2018-Feb-09 23:52N 01°22' E 103°33'0 0.0
2018-Feb-09 23:22N 01°22' E 103°33'0 0.0
2018-Feb-09 22:58N 01°22' E 103°33'0 0.1
2018-Feb-09 22:46N 01°22' E 103°33'0 0.0
2018-Feb-09 17:00N 01°22' E 103°33'14 4.8
2018-Feb-09 14:00N 01°15' E 103°20'  
Track history (hours):
 
Tides and Currents Weather Stations Pressure Air Temp Water Temp Dewpoint Dewpoint Depression Visibility Wind Speed Wind Dir Waves Ship Positions

Ever Develop

Last reported at 2018-Feb-12 00:29 UTC. Time now 2018-Feb-23 18:44 UTC.
Position N 01°19' E 103°18'.
Warning: this ship's position is 11 days out of date.

Type: Ship (hazmat cat D). MMSI: 356391000.

Date/timePositionNaut miles runAvg speedWind from/ knotsBaromVisibWave heightAir tempDewpointWater temp
2018-Feb-12 00:29N 01°19' E 103°18'713.6
2018-Feb-11 23:57N 01°15' E 103°24'613.9
2018-Feb-11 23:30N 01°13' E 103°30'714.3
2018-Feb-11 23:01N 01°12' E 103°37'5 9.9
2018-Feb-11 22:29N 01°14' E 103°42'510.6
2018-Feb-11 22:00N 01°16' E 103°46'1 1.9
2018-Feb-11 21:31N 01°16' E 103°47'0 0.0
2018-Feb-11 20:55N 01°16' E 103°47'0 0.0
2018-Feb-11 20:28N 01°16' E 103°47'0 0.0
2018-Feb-11 19:55N 01°16' E 103°47'0 0.0
2018-Feb-11 19:28N 01°16' E 103°47'0 0.0
2018-Feb-11 18:55N 01°16' E 103°47'0 0.0
2018-Feb-11 18:28N 01°16' E 103°47'0 0.0
2018-Feb-11 17:55N 01°16' E 103°47'0 0.0
2018-Feb-11 17:25N 01°16' E 103°47'0 0.0
2018-Feb-11 16:58N 01°16' E 103°47'0 0.0
2018-Feb-11 16:25N 01°16' E 103°47'0 0.0
2018-Feb-11 15:55N 01°16' E 103°47'0 0.0
2018-Feb-11 15:28N 01°16' E 103°47'0 0.0
2018-Feb-11 14:55N 01°16' E 103°47'0 0.0
2018-Feb-11 14:28N 01°16' E 103°47'0 0.0
2018-Feb-11 13:55N 01°16' E 103°47'0 0.1
2018-Feb-11 13:25N 01°16' E 103°47'0 0.1
2018-Feb-11 12:55N 01°16' E 103°47'0 0.0
2018-Feb-11 12:25N 01°16' E 103°47'0 0.0
2018-Feb-11 11:55N 01°16' E 103°47'0 0.0
2018-Feb-11 11:28N 01°16' E 103°47'0 0.0
2018-Feb-11 10:55N 01°16' E 103°47'0 0.0
2018-Feb-11 10:28N 01°16' E 103°47'0 0.0
2018-Feb-11 09:55N 01°16' E 103°47'0 0.0
2018-Feb-11 09:28N 01°16' E 103°47'0 0.0
2018-Feb-11 08:58N 01°16' E 103°47'0 0.0
2018-Feb-11 08:22N 01°16' E 103°47'0 0.0
2018-Feb-11 07:55N 01°16' E 103°47'0 0.0
2018-Feb-11 07:25N 01°16' E 103°47'0 0.0
2018-Feb-11 06:43N 01°16' E 103°47'0 0.0
2018-Feb-11 06:30N 01°16' E 103°47'1 1.1
2018-Feb-11 06:00N 01°16' E 103°47'0 0.1
2018-Feb-11 05:30N 01°16' E 103°47'2 3.7
2018-Feb-11 05:00N 01°15' E 103°45'4 7.0
2018-Feb-11 04:30N 01°13' E 103°42'1 2.5
2018-Feb-11 03:55N 01°12' E 103°41'0 0.1
2018-Feb-11 03:28N 01°12' E 103°41'0 0.0
2018-Feb-11 02:58N 01°12' E 103°41'0 0.1
2018-Feb-11 02:28N 01°12' E 103°41'0 0.0
2018-Feb-11 01:58N 01°12' E 103°41'0 0.0
2018-Feb-11 01:25N 01°12' E 103°41'0 0.1
2018-Feb-11 00:58N 01°12' E 103°41'0 0.0
2018-Feb-11 00:28N 01°12' E 103°41'0 0.0
2018-Feb-10 23:58N 01°12' E 103°41'0 0.1
2018-Feb-10 23:28N 01°12' E 103°41'0 0.0
2018-Feb-10 22:58N 01°12' E 103°41'0 0.0
2018-Feb-10 22:28N 01°12' E 103°41'0 0.0
2018-Feb-10 21:58N 01°12' E 103°41'0 0.1
2018-Feb-10 21:28N 01°12' E 103°41'0 0.0
2018-Feb-10 20:58N 01°12' E 103°41'0 0.0
2018-Feb-10 20:28N 01°12' E 103°41'0 0.0
2018-Feb-10 19:55N 01°12' E 103°41'0 0.0
2018-Feb-10 19:28N 01°12' E 103°41'0 0.1
2018-Feb-10 18:58N 01°12' E 103°41'0 0.1
2018-Feb-10 18:28N 01°12' E 103°41'0 0.2
2018-Feb-10 17:59N 01°12' E 103°41'0 0.1
2018-Feb-10 17:29N 01°12' E 103°41'2 3.7
2018-Feb-10 17:00N 01°12' E 103°39'3 6.8
2018-Feb-10 16:30N 01°13' E 103°36'1 2.0
2018-Feb-10 15:59N 01°12' E 103°35'3 6.3
2018-Feb-10 15:30N 01°11' E 103°32'2 4.6
2018-Feb-10 14:59N 01°10' E 103°30'0 0.2
2018-Feb-10 14:30N 01°10' E 103°30'2 3.3
2018-Feb-10 14:00N 01°11' E 103°28'1 1.7
2018-Feb-10 13:29N 01°11' E 103°29'1 1.7
2018-Feb-10 12:59N 01°11' E 103°30'1 1.4
2018-Feb-10 12:30N 01°11' E 103°31'1 1.2
2018-Feb-10 12:00N 01°11' E 103°31'3 7.0
2018-Feb-10 11:30N 01°15' E 103°32'610.8
2018-Feb-10 11:00N 01°20' E 103°33'2 3.2
2018-Feb-10 10:30N 01°22' E 103°33'0 0.1
2018-Feb-10 09:55N 01°22' E 103°33'0 0.0
2018-Feb-10 09:22N 01°22' E 103°33'0 0.0
2018-Feb-10 08:58N 01°22' E 103°33'0 0.0
2018-Feb-10 08:28N 01°22' E 103°33'0 0.0
2018-Feb-10 07:58N 01°22' E 103°33'0 0.0
2018-Feb-10 07:25N 01°22' E 103°33'0 0.0
2018-Feb-10 06:58N 01°22' E 103°33'0 0.0
2018-Feb-10 06:22N 01°22' E 103°33'0 0.0
2018-Feb-10 05:58N 01°22' E 103°33'0 0.0
2018-Feb-10 04:58N 01°22' E 103°33'0 0.0
2018-Feb-10 04:25N 01°22' E 103°33'0 0.0
2018-Feb-10 03:58N 01°22' E 103°33'0 0.0
2018-Feb-10 03:25N 01°22' E 103°33'0 0.0
2018-Feb-10 02:58N 01°22' E 103°33'0 0.0
2018-Feb-10 02:04N 01°22' E 103°33'0 0.0
2018-Feb-10 01:58N 01°22' E 103°33'0 0.0
2018-Feb-10 01:28N 01°22' E 103°33'0 0.0
2018-Feb-10 00:55N 01°22' E 103°33'0 0.0
2018-Feb-10 00:28N 01°22' E 103°33'0 0.0
2018-Feb-09 23:52N 01°22' E 103°33'0 0.0
2018-Feb-09 23:22N 01°22' E 103°33'0 0.0
2018-Feb-09 22:58N 01°22' E 103°33'0 0.1
2018-Feb-09 22:46N 01°22' E 103°33'0 0.0
2018-Feb-09 17:00N 01°22' E 103°33'14 4.8
2018-Feb-09 14:00N 01°15' E 103°20'  

Dump ship's entire track history